Time;durP1;ratioP1;P1;durP2;ratioP2;P2;SDS_P1;SDS_P2;PMS_P1;PMS_P2;Temp;Humidity;BMP_temperature;BMP_pressure;BME280_temperature;BME280_humidity;BME280_pressure;Samples;Min_cycle;Max_cycle;Signal;HPM_P1;HPM_P2
2023/08/06 00:01:27;;;;;;;2.15;0.90;;;;;;;;;;4916264;29;20028;-80
2023/08/06 00:03:52;;;;;;;2.85;0.93;;;;;;;;;;4914558;29;20062;-77
2023/08/06 00:06:17;;;;;;;2.88;1.02;;;;;;;;;;4915792;29;20457;-79
2023/08/06 00:08:43;;;;;;;4.30;1.02;;;;;;;;;;4915027;29;20485;-77
2023/08/06 00:11:08;;;;;;;3.50;1.10;;;;;;;;;;4916301;29;20024;-77
2023/08/06 00:13:33;;;;;;;4.57;1.05;;;;;;;;;;4914782;29;20032;-77
2023/08/06 00:16:12;;;;;;;3.10;1.02;;;;;;;;;;4903488;29;20034;-77
2023/08/06 00:18:38;;;;;;;5.70;1.30;;;;;;;;;;4897512;29;20035;-77
2023/08/06 00:21:04;;;;;;;4.53;1.13;;;;;;;;;;4897452;29;20129;-80
2023/08/06 00:23:29;;;;;;;3.83;1.10;;;;;;;;;;4897577;29;20028;-79
2023/08/06 00:25:54;;;;;;;3.90;1.05;;;;;;;;;;4897417;29;20033;-78
2023/08/06 00:28:20;;;;;;;4.93;1.10;;;;;;;;;;4896943;29;20036;-77
2023/08/06 00:30:45;;;;;;;3.88;1.02;;;;;;;;;;4895613;29;20024;-78
2023/08/06 00:33:10;;;;;;;6.00;1.13;;;;;;;;;;4895940;29;20120;-77
2023/08/06 00:35:36;;;;;;;9.60;1.15;;;;;;;;;;4897150;29;20103;-78
2023/08/06 00:38:02;;;;;;;4.05;1.33;;;;;;;;;;4897211;29;20116;-77
2023/08/06 00:40:30;;;;;;;3.95;1.20;;;;;;;;;;4897161;29;20384;-77
2023/08/06 00:42:56;;;;;;;3.88;1.25;;;;;;;;;;4897113;29;20028;-80
2023/08/06 00:45:22;;;;;;;3.85;1.10;;;;;;;;;;4896651;29;20035;-76
2023/08/06 00:47:48;;;;;;;2.75;1.00;;;;;;;;;;4896877;29;20043;-77
2023/08/06 00:50:13;;;;;;;3.97;1.10;;;;;;;;;;4896856;29;20523;-77
2023/08/06 00:52:40;;;;;;;3.67;1.30;;;;;;;;;;4895837;29;20035;-77
2023/08/06 00:55:06;;;;;;;4.90;1.10;;;;;;;;;;4896545;29;20043;-76
2023/08/06 00:57:32;;;;;;;5.90;1.33;;;;;;;;;;4896708;29;20088;-77
2023/08/06 00:59:57;;;;;;;5.30;1.30;;;;;;;;;;4896371;29;20020;-77
2023/08/06 01:02:23;;;;;;;6.00;1.60;;;;;;;;;;4896820;29;20067;-76
2023/08/06 01:04:48;;;;;;;5.57;1.50;;;;;;;;;;4896745;29;20033;-76
2023/08/06 01:07:33;;;;;;;2.92;1.50;;;;;;;;;;4896290;29;20033;-78
2023/08/06 01:10:04;;;;;;;5.72;1.40;;;;;;;;;;4896590;29;20067;-80
2023/08/06 01:12:45;;;;;;;4.00;1.52;;;;;;;;;;4896124;29;20031;-77
2023/08/06 01:15:22;;;;;;;5.30;1.40;;;;;;;;;;4894976;29;20128;-77
2023/08/06 01:17:48;;;;;;;4.30;1.20;;;;;;;;;;4895498;29;20032;-77
2023/08/06 01:20:13;;;;;;;5.05;1.48;;;;;;;;;;4901942;29;20029;-77
2023/08/06 01:22:39;;;;;;;5.93;1.50;;;;;;;;;;4915102;29;20032;-77
2023/08/06 01:25:05;;;;;;;5.65;1.60;;;;;;;;;;4914900;29;20071;-76
2023/08/06 01:27:43;;;;;;;5.15;1.45;;;;;;;;;;4914983;29;20054;-76
2023/08/06 01:30:13;;;;;;;4.65;1.52;;;;;;;;;;4914710;29;20107;-77
2023/08/06 01:32:47;;;;;;;4.93;1.48;;;;;;;;;;4914588;29;20047;-78
2023/08/06 01:35:18;;;;;;;5.70;1.60;;;;;;;;;;4914717;29;20028;-79
2023/08/06 01:37:44;;;;;;;7.93;1.70;;;;;;;;;;4913672;29;20437;-77
2023/08/06 01:40:13;;;;;;;6.13;2.03;;;;;;;;;;4914994;29;20079;-85
2023/08/06 01:42:39;;;;;;;7.25;1.85;;;;;;;;;;4914687;29;20024;-77
2023/08/06 01:45:09;;;;;;;5.97;1.52;;;;;;;;;;4914436;29;20369;-86
2023/08/06 01:47:34;;;;;;;5.28;1.80;;;;;;;;;;4914413;29;20118;-83
2023/08/06 01:50:00;;;;;;;5.40;1.63;;;;;;;;;;4913823;29;20461;-77
2023/08/06 01:52:26;;;;;;;6.97;1.70;;;;;;;;;;4908279;29;20032;-77
2023/08/06 01:54:51;;;;;;;7.38;1.90;;;;;;;;;;4901769;29;20025;-76
2023/08/06 01:57:16;;;;;;;4.95;1.80;;;;;;;;;;4894629;29;20548;-77
2023/08/06 01:59:42;;;;;;;5.65;1.80;;;;;;;;;;4894397;29;20481;-77
2023/08/06 02:02:07;;;;;;;5.75;2.00;;;;;;;;;;4894283;29;20040;-77
2023/08/06 02:04:32;;;;;;;6.30;2.00;;;;;;;;;;4895575;29;20046;-77
2023/08/06 02:06:58;;;;;;;7.78;1.90;;;;;;;;;;4895259;29;20092;-76
2023/08/06 02:09:23;;;;;;;8.63;1.88;;;;;;;;;;4894205;29;20290;-77
2023/08/06 02:11:48;;;;;;;6.57;2.08;;;;;;;;;;4895168;29;20028;-76
2023/08/06 02:14:14;;;;;;;5.10;1.90;;;;;;;;;;4894967;29;20029;-78
2023/08/06 02:16:39;;;;;;;5.63;2.10;;;;;;;;;;4894438;29;20112;-77
2023/08/06 02:19:04;;;;;;;7.70;2.20;;;;;;;;;;4895501;29;20043;-77
2023/08/06 02:21:30;;;;;;;4.40;1.92;;;;;;;;;;4895397;29;20029;-78
2023/08/06 02:23:55;;;;;;;7.03;2.10;;;;;;;;;;4893971;29;20039;-77
2023/08/06 02:26:21;;;;;;;10.23;2.53;;;;;;;;;;4903186;29;20028;-76
2023/08/06 02:28:46;;;;;;;5.88;2.17;;;;;;;;;;4914829;29;20036;-76
2023/08/06 02:31:11;;;;;;;7.88;2.10;;;;;;;;;;4913797;29;20110;-83
2023/08/06 02:33:37;;;;;;;7.20;2.08;;;;;;;;;;4913550;29;20131;-77
2023/08/06 02:36:03;;;;;;;7.57;2.47;;;;;;;;;;4913846;29;20047;-81
2023/08/06 02:38:29;;;;;;;6.90;2.35;;;;;;;;;;4914259;29;20059;-77
2023/08/06 02:40:55;;;;;;;7.97;2.13;;;;;;;;;;4914250;29;20060;-77
2023/08/06 02:43:20;;;;;;;6.85;2.17;;;;;;;;;;4913929;29;20064;-77
2023/08/06 02:45:46;;;;;;;6.38;2.00;;;;;;;;;;4913979;29;20032;-76
2023/08/06 02:48:11;;;;;;;6.32;2.30;;;;;;;;;;4906412;29;20404;-76
2023/08/06 02:50:41;;;;;;;6.47;2.25;;;;;;;;;;4894795;29;20537;-75
2023/08/06 02:53:07;;;;;;;7.43;2.10;;;;;;;;;;4903626;29;20158;-76
2023/08/06 02:55:33;;;;;;;6.53;2.15;;;;;;;;;;4912803;29;20127;-77
2023/08/06 02:58:02;;;;;;;4.78;2.10;;;;;;;;;;4914399;29;20107;-77
2023/08/06 03:00:28;;;;;;;5.55;2.22;;;;;;;;;;4922649;29;20028;-76
2023/08/06 03:02:53;;;;;;;4.43;2.10;;;;;;;;;;4924298;29;20432;-77
2023/08/06 03:05:19;;;;;;;7.10;2.30;;;;;;;;;;4919435;29;20023;-77
2023/08/06 03:07:44;;;;;;;5.43;2.28;;;;;;;;;;4921310;29;20054;-79
2023/08/06 03:10:10;;;;;;;5.03;2.10;;;;;;;;;;4914266;29;20034;-77
2023/08/06 03:12:35;;;;;;;5.32;2.05;;;;;;;;;;4912363;29;20028;-77
2023/08/06 03:15:00;;;;;;;7.07;2.25;;;;;;;;;;4913345;29;20032;-77
2023/08/06 03:17:26;;;;;;;7.47;2.28;;;;;;;;;;4913619;29;20023;-77
2023/08/06 03:19:51;;;;;;;5.53;2.20;;;;;;;;;;4913890;29;20036;-78
2023/08/06 03:22:16;;;;;;;5.28;2.25;;;;;;;;;;4913725;29;20032;-77
2023/08/06 03:24:42;;;;;;;6.00;2.30;;;;;;;;;;4913594;29;20052;-78
2023/08/06 03:27:07;;;;;;;6.70;2.10;;;;;;;;;;4910216;29;20103;-77
2023/08/06 03:29:32;;;;;;;6.95;2.30;;;;;;;;;;4894512;29;20123;-77
2023/08/06 03:31:58;;;;;;;5.47;2.10;;;;;;;;;;4894714;29;20112;-77
2023/08/06 03:34:23;;;;;;;5.63;2.10;;;;;;;;;;4896781;29;20045;-77
2023/08/06 03:36:48;;;;;;;7.22;2.30;;;;;;;;;;4912747;29;20051;-77
2023/08/06 03:39:14;;;;;;;8.32;2.40;;;;;;;;;;4913468;29;20025;-77
2023/08/06 03:41:40;;;;;;;4.22;2.08;;;;;;;;;;4914599;29;20050;-77
2023/08/06 03:44:05;;;;;;;8.52;2.30;;;;;;;;;;4915791;29;20028;-76
2023/08/06 03:46:33;;;;;;;5.18;2.13;;;;;;;;;;4916065;29;20101;-77
2023/08/06 03:49:00;;;;;;;6.05;2.20;;;;;;;;;;4917066;29;20024;-77
2023/08/06 03:51:25;;;;;;;6.82;2.40;;;;;;;;;;4928468;29;20084;-76
2023/08/06 03:53:50;;;;;;;5.38;2.50;;;;;;;;;;4917859;29;20063;-77
2023/08/06 03:56:16;;;;;;;6.93;2.30;;;;;;;;;;4916593;29;20035;-77
2023/08/06 03:58:41;;;;;;;5.45;2.40;;;;;;;;;;4915748;29;20432;-77
2023/08/06 04:01:07;;;;;;;4.82;2.10;;;;;;;;;;4917400;29;20441;-76
2023/08/06 04:03:32;;;;;;;5.25;2.28;;;;;;;;;;4917792;29;20115;-77
2023/08/06 04:05:57;;;;;;;7.38;2.40;;;;;;;;;;4916056;29;20036;-76
2023/08/06 04:08:22;;;;;;;7.88;2.50;;;;;;;;;;4916114;29;20063;-77
2023/08/06 04:10:52;;;;;;;6.28;2.45;;;;;;;;;;4916026;29;20028;-77
2023/08/06 04:13:17;;;;;;;7.05;2.45;;;;;;;;;;4915358;29;20099;-77
2023/08/06 04:15:43;;;;;;;5.60;2.15;;;;;;;;;;4906846;29;20752;-77
2023/08/06 04:18:08;;;;;;;7.45;2.20;;;;;;;;;;4915322;29;20064;-77
2023/08/06 04:20:33;;;;;;;6.82;2.20;;;;;;;;;;4915988;29;20067;-78
2023/08/06 04:22:59;;;;;;;7.75;2.22;;;;;;;;;;4915974;29;20028;-77
2023/08/06 04:25:24;;;;;;;4.60;2.15;;;;;;;;;;4915836;29;20043;-78
2023/08/06 04:27:50;;;;;;;5.75;2.40;;;;;;;;;;4915884;29;20036;-77
2023/08/06 04:30:15;;;;;;;9.95;2.55;;;;;;;;;;4915431;29;20051;-78
2023/08/06 04:32:41;;;;;;;8.18;2.40;;;;;;;;;;4915775;29;20070;-76
2023/08/06 04:35:06;;;;;;;9.60;2.35;;;;;;;;;;4914783;29;20040;-76
2023/08/06 04:37:32;;;;;;;4.38;2.10;;;;;;;;;;4915628;29;20512;-77
2023/08/06 04:39:57;;;;;;;7.28;2.95;;;;;;;;;;4915385;29;20028;-77
2023/08/06 04:42:23;;;;;;;6.75;2.47;;;;;;;;;;4914948;29;20046;-77
2023/08/06 04:44:48;;;;;;;4.15;2.25;;;;;;;;;;4915115;29;20086;-75
2023/08/06 04:47:14;;;;;;;5.57;2.13;;;;;;;;;;4915592;29;20100;-77
2023/08/06 04:49:39;;;;;;;9.32;2.20;;;;;;;;;;4915550;29;20021;-78
2023/08/06 04:52:05;;;;;;;7.15;2.28;;;;;;;;;;4914383;29;20468;-77
2023/08/06 04:54:31;;;;;;;7.93;2.70;;;;;;;;;;4915598;29;20593;-77
2023/08/06 04:56:56;;;;;;;7.85;2.40;;;;;;;;;;4915413;29;20476;-78
2023/08/06 04:59:22;;;;;;;7.35;2.53;;;;;;;;;;4914801;29;20028;-77
2023/08/06 05:01:47;;;;;;;5.95;2.33;;;;;;;;;;4915471;29;20091;-77
2023/08/06 05:04:12;;;;;;;7.15;2.10;;;;;;;;;;4918367;29;20032;-76
2023/08/06 05:06:38;;;;;;;6.47;2.22;;;;;;;;;;4934546;29;20091;-77
2023/08/06 05:09:04;;;;;;;9.02;2.42;;;;;;;;;;4922780;29;20099;-77
2023/08/06 05:11:30;;;;;;;5.22;2.20;;;;;;;;;;4915210;29;20036;-77
2023/08/06 05:13:55;;;;;;;5.85;2.15;;;;;;;;;;4914718;29;20067;-77
2023/08/06 05:16:20;;;;;;;4.30;1.98;;;;;;;;;;4914942;29;20115;-78
2023/08/06 05:18:46;;;;;;;3.65;2.00;;;;;;;;;;4915235;29;20089;-76
2023/08/06 05:21:11;;;;;;;5.68;2.00;;;;;;;;;;4914957;29;20095;-76
2023/08/06 05:23:36;;;;;;;5.10;2.28;;;;;;;;;;4915199;29;20032;-77
2023/08/06 05:26:02;;;;;;;6.15;1.90;;;;;;;;;;4914973;29;20095;-77
2023/08/06 05:28:27;;;;;;;6.20;2.10;;;;;;;;;;4914357;29;20409;-78
2023/08/06 05:30:52;;;;;;;5.78;1.92;;;;;;;;;;4914546;29;20024;-76
2023/08/06 05:33:18;;;;;;;5.60;2.30;;;;;;;;;;4914998;29;20104;-78
2023/08/06 05:35:43;;;;;;;7.22;2.20;;;;;;;;;;4914784;29;20031;-76
2023/08/06 05:38:08;;;;;;;5.43;2.42;;;;;;;;;;4914772;29;20035;-77
2023/08/06 05:40:34;;;;;;;5.45;2.00;;;;;;;;;;4914706;29;20043;-78
2023/08/06 05:42:59;;;;;;;7.35;2.20;;;;;;;;;;4914865;29;20031;-76
2023/08/06 05:45:25;;;;;;;5.97;2.50;;;;;;;;;;4913833;29;20028;-76
2023/08/06 05:47:50;;;;;;;5.53;2.28;;;;;;;;;;4913989;29;20040;-76
2023/08/06 05:50:16;;;;;;;5.38;2.22;;;;;;;;;;4914701;29;20119;-77
2023/08/06 05:52:41;;;;;;;8.00;2.30;;;;;;;;;;4914447;29;20116;-77
2023/08/06 05:55:07;;;;;;;4.57;2.20;;;;;;;;;;4914662;29;20035;-77
2023/08/06 05:57:32;;;;;;;5.45;2.20;;;;;;;;;;4912735;29;20042;-76
2023/08/06 05:59:57;;;;;;;6.68;2.58;;;;;;;;;;4912584;29;20357;-76
2023/08/06 06:02:23;;;;;;;6.60;2.20;;;;;;;;;;4914514;29;20032;-76
2023/08/06 06:04:48;;;;;;;5.70;2.15;;;;;;;;;;4913818;29;20392;-77
2023/08/06 06:07:14;;;;;;;5.07;2.30;;;;;;;;;;4914479;29;20115;-76
2023/08/06 06:09:39;;;;;;;6.55;2.40;;;;;;;;;;4914642;29;20105;-76
2023/08/06 06:12:05;;;;;;;5.18;2.30;;;;;;;;;;4913930;29;20036;-77
2023/08/06 06:14:31;;;;;;;6.10;2.40;;;;;;;;;;4914052;29;20060;-77
2023/08/06 06:16:56;;;;;;;5.80;2.53;;;;;;;;;;4914141;29;20511;-77
2023/08/06 06:19:21;;;;;;;3.88;1.92;;;;;;;;;;4914267;29;20036;-77
2023/08/06 06:21:47;;;;;;;7.35;2.30;;;;;;;;;;4913214;29;20044;-78
2023/08/06 06:24:12;;;;;;;5.45;2.05;;;;;;;;;;4903684;29;20092;-78
2023/08/06 06:26:38;;;;;;;6.72;1.98;;;;;;;;;;4915511;29;20119;-77
2023/08/06 06:29:03;;;;;;;6.80;1.90;;;;;;;;;;4922393;29;20036;-77
2023/08/06 06:31:29;;;;;;;6.00;2.10;;;;;;;;;;4920278;29;20028;-77
2023/08/06 06:33:54;;;;;;;5.55;2.00;;;;;;;;;;4922570;29;20044;-77
2023/08/06 06:36:20;;;;;;;6.25;1.70;;;;;;;;;;4924283;29;20036;-77
2023/08/06 06:38:45;;;;;;;4.38;1.70;;;;;;;;;;4924412;29;20032;-77
2023/08/06 06:41:11;;;;;;;7.10;2.00;;;;;;;;;;4924009;29;20039;-77
2023/08/06 06:43:38;;;;;;;8.38;2.42;;;;;;;;;;4914722;29;20060;-77
2023/08/06 06:46:03;;;;;;;4.80;1.80;;;;;;;;;;4913490;29;20051;-78
2023/08/06 06:48:31;;;;;;;5.00;1.75;;;;;;;;;;4915151;29;20032;-78
2023/08/06 06:50:56;;;;;;;3.65;1.80;;;;;;;;;;4919727;29;20059;-78
2023/08/06 06:53:27;;;;;;;3.50;1.50;;;;;;;;;;4913731;29;20063;-78
2023/08/06 06:56:03;;;;;;;4.88;1.75;;;;;;;;;;4915808;29;20070;-77
2023/08/06 06:58:29;;;;;;;5.35;1.50;;;;;;;;;;4923878;29;20038;-77
2023/08/06 07:00:54;;;;;;;5.43;1.70;;;;;;;;;;4923789;29;20043;-77
2023/08/06 07:03:20;;;;;;;4.05;1.70;;;;;;;;;;4923820;29;20107;-77
2023/08/06 07:05:46;;;;;;;7.38;1.80;;;;;;;;;;4923293;29;20108;-77
2023/08/06 07:08:11;;;;;;;6.82;1.70;;;;;;;;;;4923443;29;20032;-76
2023/08/06 07:10:37;;;;;;;4.70;1.83;;;;;;;;;;4923245;29;20028;-76
2023/08/06 07:13:02;;;;;;;3.78;1.58;;;;;;;;;;4923150;29;20133;-76
2023/08/06 07:15:27;;;;;;;5.00;1.70;;;;;;;;;;4922935;29;20032;-77
2023/08/06 07:17:53;;;;;;;7.07;1.75;;;;;;;;;;4926487;29;20506;-77
2023/08/06 07:20:18;;;;;;;4.32;1.70;;;;;;;;;;4926578;29;20226;-77
2023/08/06 07:22:44;;;;;;;4.35;1.95;;;;;;;;;;4926984;29;20024;-77
2023/08/06 07:25:09;;;;;;;3.92;1.60;;;;;;;;;;4926162;29;20095;-78
2023/08/06 07:27:35;;;;;;;4.18;1.70;;;;;;;;;;4916762;29;20120;-77
2023/08/06 07:30:00;;;;;;;6.22;1.70;;;;;;;;;;4916582;29;20063;-77
2023/08/06 07:32:27;;;;;;;5.68;1.92;;;;;;;;;;4916379;29;20436;-77
2023/08/06 07:34:56;;;;;;;5.78;1.63;;;;;;;;;;4915696;29;20032;-77
2023/08/06 07:37:22;;;;;;;4.43;1.50;;;;;;;;;;4915492;29;20385;-78
2023/08/06 07:39:48;;;;;;;4.40;1.50;;;;;;;;;;4916739;29;20527;-77
2023/08/06 07:42:13;;;;;;;6.07;1.70;;;;;;;;;;4916621;29;20095;-77
2023/08/06 07:44:38;;;;;;;7.20;1.98;;;;;;;;;;4916476;29;20352;-77
2023/08/06 07:47:04;;;;;;;6.00;1.50;;;;;;;;;;4913476;29;20373;-76
2023/08/06 07:49:29;;;;;;;3.20;1.50;;;;;;;;;;4916552;29;20123;-76
2023/08/06 07:51:55;;;;;;;4.60;1.80;;;;;;;;;;4916221;29;20516;-76
2023/08/06 07:54:20;;;;;;;3.35;1.60;;;;;;;;;;4916498;29;20076;-76
2023/08/06 07:56:45;;;;;;;3.53;1.80;;;;;;;;;;4914510;29;20028;-77
2023/08/06 07:59:11;;;;;;;4.05;1.88;;;;;;;;;;4915931;29;20219;-77
2023/08/06 08:01:36;;;;;;;5.20;1.60;;;;;;;;;;4916068;29;20463;-77
2023/08/06 08:04:01;;;;;;;4.78;1.80;;;;;;;;;;4916306;29;20028;-75
2023/08/06 08:06:27;;;;;;;3.95;1.63;;;;;;;;;;4915865;29;20028;-76
2023/08/06 08:08:52;;;;;;;5.38;1.80;;;;;;;;;;4916173;29;20036;-76
2023/08/06 08:11:18;;;;;;;5.03;1.70;;;;;;;;;;4916060;29;20046;-76
2023/08/06 08:13:44;;;;;;;6.68;1.95;;;;;;;;;;4914802;29;20124;-76
2023/08/06 08:16:09;;;;;;;4.90;1.70;;;;;;;;;;4914894;29;20056;-76
2023/08/06 08:18:34;;;;;;;7.43;2.10;;;;;;;;;;4916446;29;20481;-77
2023/08/06 08:21:00;;;;;;;4.85;1.85;;;;;;;;;;4915407;29;20028;-75
2023/08/06 08:23:25;;;;;;;7.00;2.10;;;;;;;;;;4916047;29;20032;-76
2023/08/06 08:25:51;;;;;;;4.75;1.80;;;;;;;;;;4915275;29;20028;-76
2023/08/06 08:28:16;;;;;;;4.72;2.00;;;;;;;;;;4914598;29;20035;-75
2023/08/06 08:30:42;;;;;;;6.30;1.90;;;;;;;;;;4915253;29;20027;-75
2023/08/06 08:33:07;;;;;;;3.55;1.73;;;;;;;;;;4915682;29;20500;-76
2023/08/06 08:35:33;;;;;;;4.80;1.90;;;;;;;;;;4915739;29;20028;-77
2023/08/06 08:37:59;;;;;;;3.75;1.83;;;;;;;;;;4915470;29;20376;-77
2023/08/06 08:40:30;;;;;;;6.78;2.47;;;;;;;;;;4915425;29;20118;-77
2023/08/06 08:42:56;;;;;;;4.97;1.88;;;;;;;;;;4915462;29;20396;-76
2023/08/06 08:45:26;;;;;;;5.25;1.70;;;;;;;;;;4914758;29;20103;-76
2023/08/06 08:47:51;;;;;;;5.15;1.80;;;;;;;;;;4915434;29;20036;-77
2023/08/06 08:50:18;;;;;;;6.28;2.10;;;;;;;;;;4915665;29;20087;-77
2023/08/06 08:52:45;;;;;;;6.93;1.90;;;;;;;;;;4915751;29;20091;-76
2023/08/06 08:55:11;;;;;;;6.72;2.10;;;;;;;;;;4915329;29;20127;-78
2023/08/06 08:57:37;;;;;;;4.65;1.83;;;;;;;;;;4914984;29;20496;-76
2023/08/06 09:00:03;;;;;;;5.63;1.80;;;;;;;;;;4913372;29;20043;-77
2023/08/06 09:02:30;;;;;;;5.05;1.80;;;;;;;;;;4915155;29;20091;-77
2023/08/06 09:04:59;;;;;;;6.30;1.90;;;;;;;;;;4915336;29;20028;-78
2023/08/06 09:07:26;;;;;;;6.70;1.90;;;;;;;;;;4913755;29;20032;-76
2023/08/06 09:09:52;;;;;;;4.18;1.77;;;;;;;;;;4906431;29;20036;-77
2023/08/06 09:12:18;;;;;;;5.55;2.20;;;;;;;;;;4913857;29;20028;-76
2023/08/06 09:14:43;;;;;;;4.68;1.98;;;;;;;;;;4914472;29;20477;-76
2023/08/06 09:17:12;;;;;;;4.97;1.77;;;;;;;;;;4913681;29;20112;-77
2023/08/06 09:19:43;;;;;;;5.45;2.20;;;;;;;;;;4914190;29;20488;-79
2023/08/06 09:22:13;;;;;;;4.20;2.00;;;;;;;;;;4913764;29;20066;-77
2023/08/06 09:24:39;;;;;;;4.45;1.90;;;;;;;;;;4914591;29;20427;-77
2023/08/06 09:27:05;;;;;;;5.32;1.98;;;;;;;;;;4914598;29;20043;-77
2023/08/06 09:29:32;;;;;;;3.97;1.88;;;;;;;;;;4914349;29;20032;-77
2023/08/06 09:31:58;;;;;;;5.85;2.00;;;;;;;;;;4914047;29;20028;-77
2023/08/06 09:34:23;;;;;;;6.55;1.90;;;;;;;;;;4913949;29;20044;-76
2023/08/06 09:36:53;;;;;;;4.32;1.83;;;;;;;;;;4914285;29;20039;-77
2023/08/06 09:39:20;;;;;;;5.75;2.10;;;;;;;;;;4913852;29;20071;-78
2023/08/06 09:41:49;;;;;;;5.07;1.90;;;;;;;;;;4914446;29;20488;-78
2023/08/06 09:44:19;;;;;;;5.80;2.00;;;;;;;;;;4914083;29;20036;-78
2023/08/06 09:46:49;;;;;;;5.43;2.10;;;;;;;;;;4913956;29;20028;-76
2023/08/06 09:49:16;;;;;;;4.93;1.90;;;;;;;;;;4914429;29;20036;-76
2023/08/06 09:51:42;;;;;;;6.00;2.30;;;;;;;;;;4913956;29;20484;-77
2023/08/06 09:54:10;;;;;;;5.85;2.20;;;;;;;;;;4914017;29;20034;-77
2023/08/06 09:56:37;;;;;;;4.47;1.90;;;;;;;;;;4914072;29;20164;-78
2023/08/06 09:59:06;;;;;;;4.75;1.98;;;;;;;;;;4913972;29;20039;-77
2023/08/06 10:01:33;;;;;;;7.45;1.80;;;;;;;;;;4914025;29;20027;-77
2023/08/06 10:04:00;;;;;;;5.65;1.90;;;;;;;;;;4914094;29;20036;-77
2023/08/06 10:06:28;;;;;;;5.47;1.83;;;;;;;;;;4913981;29;20024;-77
2023/08/06 10:08:53;;;;;;;4.30;1.75;;;;;;;;;;4914069;29;20150;-78
2023/08/06 10:11:23;;;;;;;4.53;1.80;;;;;;;;;;4913165;29;20032;-78
2023/08/06 10:13:53;;;;;;;3.88;1.70;;;;;;;;;;4913420;29;20074;-76
2023/08/06 10:16:20;;;;;;;5.63;1.80;;;;;;;;;;4907943;29;20445;-76
2023/08/06 10:18:48;;;;;;;5.55;1.90;;;;;;;;;;4913927;29;20131;-85
2023/08/06 10:21:14;;;;;;;5.07;1.92;;;;;;;;;;4913669;29;20106;-79
2023/08/06 10:23:40;;;;;;;7.35;1.92;;;;;;;;;;4914021;29;20448;-78
2023/08/06 10:26:06;;;;;;;4.85;1.80;;;;;;;;;;4913511;29;20033;-79
2023/08/06 10:28:37;;;;;;;3.25;1.95;;;;;;;;;;4913162;29;20496;-78
2023/08/06 10:31:04;;;;;;;7.55;1.85;;;;;;;;;;4913240;29;20032;-80
2023/08/06 10:33:44;;;;;;;4.20;1.80;;;;;;;;;;4913631;29;20049;-77
2023/08/06 10:36:10;;;;;;;3.80;1.80;;;;;;;;;;4912679;29;20028;-78
2023/08/06 10:38:48;;;;;;;5.00;1.58;;;;;;;;;;4913229;29;20028;-77
2023/08/06 10:41:26;;;;;;;3.35;1.70;;;;;;;;;;4912168;29;20032;-77
2023/08/06 10:43:52;;;;;;;4.95;1.77;;;;;;;;;;4894914;29;20043;-78
2023/08/06 10:46:27;;;;;;;5.15;1.80;;;;;;;;;;4902938;29;20028;-78
2023/08/06 10:48:52;;;;;;;4.72;1.70;;;;;;;;;;4914041;29;20489;-78
2023/08/06 10:51:17;;;;;;;4.15;1.70;;;;;;;;;;4916747;29;20036;-80
2023/08/06 10:53:45;;;;;;;3.60;1.70;;;;;;;;;;4917886;29;20083;-78
2023/08/06 10:56:17;;;;;;;3.63;1.80;;;;;;;;;;4917622;29;20024;-78
2023/08/06 10:58:44;;;;;;;8.02;1.85;;;;;;;;;;4917322;29;20040;-79
2023/08/06 11:01:10;;;;;;;4.40;1.80;;;;;;;;;;4917576;29;20030;-79
2023/08/06 11:03:37;;;;;;;4.75;1.83;;;;;;;;;;4916980;29;20481;-79
2023/08/06 11:06:02;;;;;;;5.93;1.60;;;;;;;;;;4917297;29;20500;-79
2023/08/06 11:08:29;;;;;;;5.20;1.75;;;;;;;;;;4916601;29;20088;-79
2023/08/06 11:10:55;;;;;;;2.90;1.58;;;;;;;;;;4917287;29;20428;-78
2023/08/06 11:13:21;;;;;;;3.80;1.80;;;;;;;;;;4917697;29;20472;-78
2023/08/06 11:15:46;;;;;;;3.83;1.70;;;;;;;;;;4917069;29;20468;-77
2023/08/06 11:18:12;;;;;;;5.32;1.80;;;;;;;;;;4917509;29;20285;-78
2023/08/06 11:20:39;;;;;;;3.70;1.85;;;;;;;;;;4917346;29;20031;-78
2023/08/06 11:23:05;;;;;;;5.10;1.70;;;;;;;;;;4917481;29;20036;-79
2023/08/06 11:25:30;;;;;;;4.05;1.60;;;;;;;;;;4917097;29;20047;-78
2023/08/06 11:27:56;;;;;;;3.60;1.70;;;;;;;;;;4917189;29;20476;-78
2023/08/06 11:30:21;;;;;;;5.65;1.63;;;;;;;;;;4916770;29;20107;-76
2023/08/06 11:32:47;;;;;;;3.25;1.63;;;;;;;;;;4917080;29;20032;-78
2023/08/06 11:35:13;;;;;;;3.75;1.70;;;;;;;;;;4920236;29;20216;-79
2023/08/06 11:37:43;;;;;;;3.97;1.50;;;;;;;;;;4917038;29;20132;-77
2023/08/06 11:40:11;;;;;;;3.20;1.55;;;;;;;;;;4920682;29;20032;-77
2023/08/06 11:42:37;;;;;;;5.00;1.60;;;;;;;;;;4918504;29;20047;-78
2023/08/06 11:45:06;;;;;;;4.57;1.60;;;;;;;;;;4914130;29;20474;-78
2023/08/06 11:47:31;;;;;;;3.17;1.90;;;;;;;;;;4922754;29;20119;-78
2023/08/06 11:49:57;;;;;;;3.95;1.60;;;;;;;;;;4916947;29;20136;-77
2023/08/06 11:52:24;;;;;;;5.50;1.80;;;;;;;;;;4934956;29;20027;-76
2023/08/06 11:55:03;;;;;;;3.95;1.75;;;;;;;;;;4939164;29;20028;-76
2023/08/06 11:57:37;;;;;;;3.72;1.55;;;;;;;;;;4926796;29;20054;-78
2023/08/06 12:00:08;;;;;;;3.42;1.83;;;;;;;;;;4927062;29;20024;-76
2023/08/06 12:02:36;;;;;;;3.70;1.67;;;;;;;;;;4926204;29;20031;-76
2023/08/06 12:05:23;;;;;;;3.15;1.70;;;;;;;;;;4925485;29;20036;-78
2023/08/06 12:07:59;;;;;;;5.28;1.77;;;;;;;;;;4927282;29;20034;-80
2023/08/06 12:10:25;;;;;;;4.03;1.52;;;;;;;;;;4927216;29;20315;-80
2023/08/06 12:12:51;;;;;;;3.17;1.58;;;;;;;;;;4927303;29;20319;-80
2023/08/06 12:15:17;;;;;;;6.72;2.10;;;;;;;;;;4926454;29;20032;-79
2023/08/06 12:17:42;;;;;;;3.72;1.77;;;;;;;;;;4926159;29;20044;-79
2023/08/06 12:20:09;;;;;;;2.85;1.67;;;;;;;;;;4926405;29;20035;-82
2023/08/06 12:22:35;;;;;;;3.08;1.40;;;;;;;;;;4920374;29;20096;-78
2023/08/06 12:25:08;;;;;;;4.38;1.60;;;;;;;;;;4908034;29;20028;-82
2023/08/06 12:27:35;;;;;;;3.40;1.50;;;;;;;;;;4915783;29;20099;-80
2023/08/06 12:30:00;;;;;;;4.07;1.80;;;;;;;;;;4925633;29;20039;-80
2023/08/06 12:32:26;;;;;;;3.20;1.63;;;;;;;;;;4925151;29;20032;-79
2023/08/06 12:34:51;;;;;;;3.40;1.70;;;;;;;;;;4924560;29;20052;-78
2023/08/06 12:37:16;;;;;;;6.38;1.80;;;;;;;;;;4926087;29;20024;-78
2023/08/06 12:39:42;;;;;;;4.30;1.80;;;;;;;;;;4926383;29;20223;-80
2023/08/06 12:42:07;;;;;;;4.25;1.95;;;;;;;;;;4926665;29;20020;-78
2023/08/06 12:44:33;;;;;;;6.15;2.00;;;;;;;;;;4926113;29;20160;-78
2023/08/06 12:46:58;;;;;;;4.47;1.90;;;;;;;;;;4926200;29;20106;-77
2023/08/06 12:49:25;;;;;;;3.22;2.08;;;;;;;;;;4926325;29;20028;-77
2023/08/06 12:51:52;;;;;;;4.03;1.70;;;;;;;;;;4924516;29;20068;-77
2023/08/06 12:54:18;;;;;;;3.67;1.70;;;;;;;;;;4925497;29;20379;-80
2023/08/06 12:56:44;;;;;;;3.88;1.70;;;;;;;;;;4926153;29;20231;-78
2023/08/06 12:59:09;;;;;;;6.05;1.70;;;;;;;;;;4924386;29;20260;-78
2023/08/06 13:01:37;;;;;;;4.50;1.75;;;;;;;;;;4916529;29;20379;-82
2023/08/06 13:04:02;;;;;;;3.85;1.63;;;;;;;;;;4913534;29;20087;-77
2023/08/06 13:06:28;;;;;;;3.55;1.83;;;;;;;;;;4925854;29;20051;-77
2023/08/06 13:08:53;;;;;;;4.55;1.77;;;;;;;;;;4925464;29;20063;-81
2023/08/06 13:11:19;;;;;;;3.38;1.98;;;;;;;;;;4926169;29;20067;-79
2023/08/06 13:13:44;;;;;;;3.15;1.83;;;;;;;;;;4924524;29;20028;-78
2023/08/06 13:16:10;;;;;;;3.58;1.70;;;;;;;;;;4925921;29;20309;-78
2023/08/06 13:18:35;;;;;;;4.13;1.92;;;;;;;;;;4910933;29;20104;-79
2023/08/06 13:21:01;;;;;;;3.45;1.83;;;;;;;;;;4917538;29;20125;-81
2023/08/06 13:23:26;;;;;;;4.35;1.95;;;;;;;;;;4916151;29;20083;-78
2023/08/06 13:25:51;;;;;;;2.55;1.80;;;;;;;;;;4926661;29;20032;-76
2023/08/06 13:28:19;;;;;;;3.70;1.90;;;;;;;;;;4924777;29;20036;-76
2023/08/06 13:30:45;;;;;;;3.88;1.90;;;;;;;;;;4914726;29;20028;-78
2023/08/06 13:33:11;;;;;;;4.63;1.98;;;;;;;;;;4917616;29;20228;-76
2023/08/06 13:35:37;;;;;;;3.15;2.22;;;;;;;;;;4925172;29;20035;-76
2023/08/06 13:38:05;;;;;;;4.28;2.13;;;;;;;;;;4925675;29;20032;-77
2023/08/06 13:40:33;;;;;;;4.75;2.00;;;;;;;;;;4925532;29;20040;-75
2023/08/06 13:42:59;;;;;;;4.78;1.90;;;;;;;;;;4925446;29;20103;-77
2023/08/06 13:45:24;;;;;;;6.13;2.10;;;;;;;;;;4924913;29;20036;-76
2023/08/06 13:47:50;;;;;;;2.90;1.75;;;;;;;;;;4924699;29;20340;-76
2023/08/06 13:50:15;;;;;;;3.33;1.65;;;;;;;;;;4924606;29;20067;-80
2023/08/06 13:52:41;;;;;;;3.95;1.80;;;;;;;;;;4925619;29;20051;-78
2023/08/06 13:55:07;;;;;;;5.82;1.90;;;;;;;;;;4925518;29;20075;-77
2023/08/06 13:57:33;;;;;;;3.58;1.63;;;;;;;;;;4925349;29;20024;-76
2023/08/06 13:59:59;;;;;;;4.30;1.90;;;;;;;;;;4924970;29;20027;-85
2023/08/06 14:02:25;;;;;;;3.10;1.60;;;;;;;;;;4925159;29;20032;-77
2023/08/06 14:04:51;;;;;;;4.32;1.70;;;;;;;;;;4924896;29;20211;-77
2023/08/06 14:07:17;;;;;;;7.70;1.75;;;;;;;;;;4925226;29;20055;-78
2023/08/06 14:09:44;;;;;;;3.72;1.75;;;;;;;;;;4922886;29;20028;-77
2023/08/06 14:12:09;;;;;;;5.35;2.00;;;;;;;;;;4923707;29;20115;-76
2023/08/06 14:14:34;;;;;;;17.20;2.25;;;;;;;;;;4924819;29;20035;-80
2023/08/06 14:17:00;;;;;;;3.33;1.70;;;;;;;;;;4925151;29;20048;-78
2023/08/06 14:19:26;;;;;;;6.15;1.80;;;;;;;;;;4924601;29;20063;-76
2023/08/06 14:21:52;;;;;;;7.88;1.92;;;;;;;;;;4924282;29;20235;-77
2023/08/06 14:24:17;;;;;;;3.25;1.50;;;;;;;;;;4925157;29;20024;-80
2023/08/06 14:26:42;;;;;;;4.35;1.70;;;;;;;;;;4924396;29;20193;-77
2023/08/06 14:29:08;;;;;;;3.22;1.70;;;;;;;;;;4924679;29;20279;-77
2023/08/06 14:31:33;;;;;;;3.45;1.90;;;;;;;;;;4924887;29;20028;-78
2023/08/06 14:33:59;;;;;;;3.90;1.70;;;;;;;;;;4924639;29;20602;-77
2023/08/06 14:36:26;;;;;;;2.97;1.50;;;;;;;;;;4925036;29;20027;-79
2023/08/06 14:38:51;;;;;;;2.50;1.42;;;;;;;;;;4924708;29;20091;-79